createdAt,value
2022-11-14T00:01:17.409Z,10.43
2022-11-14T00:04:18.666Z,8.80
2022-11-14T00:07:19.933Z,9.35
2022-11-14T00:10:21.535Z,10.60
2022-11-14T00:13:22.848Z,8.68
2022-11-14T00:16:24.101Z,11.77
2022-11-14T00:19:25.325Z,9.80
2022-11-14T00:22:26.573Z,9.73
2022-11-14T00:25:27.872Z,11.27
2022-11-14T00:28:29.447Z,7.90
2022-11-14T00:31:30.897Z,9.68
2022-11-14T00:34:32.131Z,7.93
2022-11-14T00:37:33.367Z,10.57
2022-11-14T00:40:34.626Z,11.98
2022-11-14T00:43:35.861Z,10.48
2022-11-14T00:46:37.208Z,8.05
2022-11-14T00:49:38.457Z,10.50
2022-11-14T00:52:39.700Z,10.43
2022-11-14T00:55:41.457Z,10.82
2022-11-14T00:58:42.724Z,11.32
2022-11-14T01:01:43.973Z,9.43
2022-11-14T01:04:45.217Z,10.68
2022-11-14T01:07:46.444Z,10.68
2022-11-14T01:10:48.872Z,10.13
2022-11-14T01:13:50.136Z,12.00
2022-11-14T01:16:51.367Z,13.57
2022-11-14T01:19:52.596Z,11.32
2022-11-14T01:22:53.845Z,9.43
2022-11-14T01:25:55.102Z,11.80
2022-11-14T01:28:56.400Z,13.93
2022-11-14T01:31:57.648Z,13.43
2022-11-14T01:34:58.868Z,12.57
2022-11-14T01:38:00.245Z,12.23
2022-11-14T01:41:01.776Z,17.48
2022-11-14T01:44:03.027Z,10.77
2022-11-14T01:47:04.440Z,12.00
2022-11-14T01:50:06.004Z,13.30
2022-11-14T01:53:07.243Z,13.18
2022-11-14T01:56:10.236Z,13.05
2022-11-14T01:59:13.554Z,9.77
2022-11-14T02:02:19.802Z,10.13
2022-11-14T02:05:21.161Z,11.95
2022-11-14T02:08:24.029Z,10.75
2022-11-14T02:11:25.467Z,10.57
2022-11-14T02:14:27.347Z,10.15
2022-11-14T02:17:30.474Z,11.77
2022-11-14T02:20:35.870Z,9.55
2022-11-14T02:23:37.112Z,12.45
2022-11-14T02:26:38.636Z,12.43
2022-11-14T02:29:39.991Z,11.77
2022-11-14T02:36:02.485Z,10.75
2022-11-14T02:39:03.740Z,9.43
2022-11-14T02:42:05.373Z,11.07
2022-11-14T02:45:07.037Z,9.10
2022-11-14T02:48:08.266Z,7.07
2022-11-14T02:51:09.521Z,10.98
2022-11-14T02:54:10.796Z,9.52
2022-11-14T02:57:12.022Z,9.98
2022-11-14T03:00:15.059Z,9.70
2022-11-14T03:03:16.709Z,9.63
2022-11-14T03:06:17.985Z,10.98
2022-11-14T03:09:19.420Z,16.08
2022-11-14T03:12:20.749Z,8.70
2022-11-14T03:15:22.440Z,11.77
2022-11-14T03:18:23.708Z,10.55
2022-11-14T03:21:24.953Z,10.23
2022-11-14T03:24:26.195Z,10.85
2022-11-14T03:27:27.504Z,9.77
2022-11-14T03:30:28.728Z,10.80
2022-11-14T03:33:29.973Z,10.30
2022-11-14T03:36:31.338Z,10.45
2022-11-14T03:39:32.726Z,11.82
2022-11-14T03:42:34.823Z,9.27
2022-11-14T03:45:36.992Z,9.45
2022-11-14T03:48:38.234Z,9.38
2022-11-14T03:51:39.471Z,8.38
2022-11-14T03:54:40.718Z,14.02
2022-11-14T03:57:42.284Z,11.52
2022-11-14T04:00:43.625Z,10.23
2022-11-14T04:03:44.901Z,10.23
2022-11-14T04:06:46.143Z,10.48
2022-11-14T04:09:47.499Z,11.18
2022-11-14T04:12:49.781Z,9.88
2022-11-14T04:15:54.554Z,9.05
2022-11-14T04:21:56.937Z,11.60
2022-11-14T04:24:58.194Z,7.43
2022-11-14T04:27:59.494Z,11.68
2022-11-14T04:31:00.716Z,12.82
2022-11-14T04:34:02.014Z,9.65
2022-11-14T04:37:03.247Z,10.75
2022-11-14T04:40:04.931Z,10.55
2022-11-14T04:43:06.164Z,13.20
2022-11-14T04:46:07.441Z,11.10
2022-11-14T04:49:08.681Z,11.73
2022-11-14T04:52:09.953Z,12.02
2022-11-14T04:55:11.290Z,12.35
2022-11-14T04:58:12.584Z,10.18
2022-11-14T05:01:14.102Z,12.93
2022-11-14T05:04:15.527Z,10.18
2022-11-14T05:07:16.802Z,8.10
2022-11-14T05:10:18.087Z,13.02
2022-11-14T05:13:19.340Z,9.77
2022-11-14T05:16:20.565Z,13.13
2022-11-14T05:19:21.804Z,12.75
2022-11-14T05:22:23.072Z,12.68
2022-11-14T05:25:24.420Z,15.35
2022-11-14T05:28:25.714Z,12.15
2022-11-14T05:31:26.937Z,10.65
2022-11-14T05:34:28.195Z,9.32
2022-11-14T05:37:29.438Z,12.70
2022-11-14T05:40:30.748Z,12.55
2022-11-14T05:43:32.457Z,11.60
2022-11-14T05:46:33.792Z,12.68
2022-11-14T05:49:35.032Z,12.35
2022-11-14T05:52:36.260Z,10.45
2022-11-14T05:55:37.645Z,10.48
2022-11-14T05:58:39.086Z,9.73
2022-11-14T06:01:40.426Z,11.45
2022-11-14T06:04:41.682Z,13.43
2022-11-14T06:07:43.033Z,11.60
2022-11-14T06:10:44.254Z,11.68
2022-11-14T06:13:45.744Z,9.57
2022-11-14T06:16:47.009Z,12.63
2022-11-14T06:19:48.260Z,12.27
2022-11-14T06:22:49.710Z,10.45
2022-11-14T06:25:50.937Z,12.63
2022-11-14T06:28:52.738Z,11.85
2022-11-14T06:31:53.968Z,10.40
2022-11-14T06:34:55.242Z,11.52
2022-11-14T06:37:56.476Z,9.73
2022-11-14T06:41:05.070Z,11.50
2022-11-14T06:44:07.569Z,9.38
2022-11-14T06:47:08.800Z,8.75
2022-11-14T06:50:10.022Z,9.77
2022-11-14T06:53:11.278Z,12.70
2022-11-14T06:56:14.116Z,9.18
2022-11-14T06:59:15.373Z,13.70
2022-11-14T07:02:21.655Z,10.52
2022-11-14T07:05:23.328Z,8.38
2022-11-14T07:08:24.629Z,20.85
2022-11-14T07:11:29.327Z,11.00
2022-11-14T07:14:30.600Z,27.92
2022-11-14T07:17:34.128Z,16.17
2022-11-14T07:20:35.395Z,14.55
2022-11-14T07:23:36.713Z,11.90
2022-11-14T07:26:38.031Z,11.88
2022-11-14T07:29:39.340Z,10.88
2022-11-14T07:32:40.574Z,15.10
2022-11-14T07:35:41.979Z,13.55
2022-11-14T07:38:44.496Z,8.88
2022-11-14T07:41:45.761Z,11.18
2022-11-14T07:44:47.020Z,12.50
2022-11-14T07:47:48.253Z,12.45
2022-11-14T07:50:49.528Z,10.65
2022-11-14T07:53:51.980Z,12.63
2022-11-14T07:56:53.318Z,11.63
2022-11-14T07:59:54.579Z,12.20
2022-11-14T08:02:55.840Z,15.43
2022-11-14T08:06:00.968Z,18.98
2022-11-14T08:09:02.236Z,16.73
2022-11-14T08:12:03.605Z,14.60
2022-11-14T08:15:06.020Z,14.95
2022-11-14T08:18:07.252Z,14.32
2022-11-14T08:21:08.568Z,12.90
2022-11-14T08:24:09.930Z,13.98
2022-11-14T08:27:11.221Z,14.73
2022-11-14T08:30:12.731Z,11.77
2022-11-14T08:33:13.971Z,13.18
2022-11-14T08:36:15.415Z,12.98
2022-11-14T08:39:16.739Z,10.70
2022-11-14T08:42:18.006Z,12.23
2022-11-14T08:45:19.319Z,11.65
2022-11-14T08:48:20.570Z,11.50
2022-11-14T08:51:21.859Z,9.73
2022-11-14T08:54:23.098Z,9.35
2022-11-14T08:57:24.364Z,11.85
2022-11-14T09:00:25.929Z,11.77
2022-11-14T09:03:27.206Z,9.25
2022-11-14T09:06:28.789Z,11.07
2022-11-14T09:09:30.110Z,11.82
2022-11-14T09:12:31.448Z,10.18
2022-11-14T09:15:33.931Z,9.85
2022-11-14T09:18:35.249Z,10.63
2022-11-14T09:21:36.602Z,11.55
2022-11-14T09:24:37.867Z,12.05
2022-11-14T09:27:39.220Z,8.15
2022-11-14T09:30:41.495Z,10.48
2022-11-14T09:33:42.772Z,10.35
2022-11-14T09:36:44.169Z,10.45
2022-11-14T09:39:45.444Z,11.18
2022-11-14T09:42:57.129Z,10.35
2022-11-14T09:45:58.419Z,10.02
2022-11-14T09:48:59.757Z,11.73
2022-11-14T09:52:21.269Z,10.52
2022-11-14T09:55:23.897Z,10.32
2022-11-14T09:58:26.411Z,8.77
2022-11-14T10:01:33.724Z,11.20
2022-11-14T10:05:01.289Z,11.18
2022-11-14T10:08:18.022Z,9.07
2022-11-14T10:11:37.740Z,9.88
2022-11-14T10:14:45.217Z,9.75
2022-11-14T10:17:52.352Z,8.73
2022-11-14T10:20:55.293Z,9.43
2022-11-14T10:24:05.413Z,9.65
2022-11-14T10:27:15.243Z,9.90
2022-11-14T10:30:18.351Z,8.73
2022-11-14T10:33:22.828Z,9.43
2022-11-14T10:36:32.020Z,8.98
2022-11-14T10:39:46.601Z,8.32
2022-11-14T10:42:51.071Z,10.57
2022-11-14T10:48:59.026Z,10.30
2022-11-14T10:52:04.513Z,8.23
2022-11-14T10:55:43.520Z,10.10
2022-11-14T10:58:48.986Z,8.80
2022-11-14T11:01:51.110Z,8.13
2022-11-14T11:04:52.377Z,9.50
2022-11-14T11:08:42.219Z,8.77
2022-11-14T11:11:33.472Z,9.30
2022-11-14T11:14:35.534Z,9.30
2022-11-14T11:17:42.857Z,7.68
2022-11-14T11:20:44.698Z,7.55
2022-11-14T11:23:49.021Z,9.50
2022-11-14T11:27:10.225Z,8.40
2022-11-14T11:30:23.029Z,6.65
2022-11-14T11:33:26.183Z,8.05
2022-11-14T11:36:28.718Z,11.65
2022-11-14T11:39:31.973Z,8.23
2022-11-14T11:43:23.910Z,10.05
2022-11-14T11:45:59.794Z,8.32
2022-11-14T11:49:11.644Z,8.88
2022-11-14T11:52:17.219Z,7.72
2022-11-14T11:55:21.800Z,9.48
2022-11-14T11:58:28.386Z,6.80
2022-11-14T12:01:29.696Z,9.23
2022-11-14T12:04:30.961Z,9.70
2022-11-14T12:07:40.820Z,7.50
2022-11-14T12:10:42.748Z,8.57
2022-11-14T12:13:43.959Z,8.00
2022-11-14T12:16:54.452Z,7.18
2022-11-14T12:19:58.878Z,7.80
2022-11-14T12:26:19.518Z,5.72
2022-11-14T12:29:26.899Z,8.05
2022-11-14T12:32:32.716Z,7.25
2022-11-14T12:35:35.316Z,7.97
2022-11-14T12:38:50.722Z,9.38
2022-11-14T12:42:00.551Z,6.40
2022-11-14T12:45:01.798Z,7.88
2022-11-14T12:48:15.241Z,8.68
2022-11-14T12:51:25.860Z,6.57
2022-11-14T12:54:44.983Z,7.60
2022-11-14T12:57:56.638Z,13.98
2022-11-14T13:01:06.983Z,7.78
2022-11-14T13:04:27.247Z,6.93
2022-11-14T13:07:34.949Z,5.95
2022-11-14T13:10:40.669Z,7.03
2022-11-14T13:14:18.595Z,7.15
2022-11-14T13:17:43.234Z,5.28
2022-11-14T13:21:03.290Z,5.55
2022-11-14T13:24:05.211Z,5.60
2022-11-14T13:27:39.213Z,7.75
2022-11-14T13:31:04.023Z,4.75
2022-11-14T13:34:24.124Z,6.32
2022-11-14T13:37:42.448Z,5.80
2022-11-14T13:40:52.819Z,5.00
2022-11-14T13:44:12.898Z,4.18
2022-11-14T13:47:21.217Z,5.22
2022-11-14T13:50:29.372Z,4.32
2022-11-14T13:53:32.339Z,4.93
2022-11-14T13:56:49.359Z,4.63
2022-11-14T13:59:59.605Z,3.72
2022-11-14T14:03:21.222Z,6.20
2022-11-14T14:06:42.284Z,3.90
2022-11-14T14:10:02.071Z,4.03
2022-11-14T14:13:12.187Z,3.95
2022-11-14T14:16:18.089Z,5.47
2022-11-14T14:19:32.413Z,4.13
2022-11-14T14:23:03.121Z,4.40
2022-11-14T14:29:19.969Z,3.15
2022-11-14T14:32:21.424Z,5.70
2022-11-14T14:35:24.566Z,4.43
2022-11-14T14:38:27.179Z,4.60
2022-11-14T14:41:30.697Z,6.78
2022-11-14T14:44:36.834Z,5.78
2022-11-14T14:47:40.039Z,5.53
2022-11-14T14:50:41.471Z,4.57
2022-11-14T14:53:50.982Z,5.43
2022-11-14T14:56:53.552Z,5.32
2022-11-14T15:00:01.231Z,6.45
2022-11-14T15:03:02.760Z,5.43
2022-11-14T15:06:05.504Z,4.32
2022-11-14T15:09:19.132Z,4.93
2022-11-14T15:12:21.159Z,6.15
2022-11-14T15:15:22.726Z,5.95
2022-11-14T15:18:28.409Z,5.95
2022-11-14T15:21:29.941Z,6.38
2022-11-14T15:24:32.169Z,7.95
2022-11-14T15:27:33.469Z,6.45
2022-11-14T15:30:35.399Z,5.90
2022-11-14T15:33:36.735Z,12.45
2022-11-14T15:36:57.933Z,7.53
2022-11-14T15:40:18.847Z,8.40
2022-11-14T15:43:37.050Z,5.80
2022-11-14T15:46:40.164Z,12.50
2022-11-14T15:49:50.959Z,7.03
2022-11-14T15:52:58.864Z,6.35
2022-11-14T15:56:00.117Z,6.30
2022-11-14T15:59:01.361Z,6.88
2022-11-14T16:02:09.607Z,5.05
2022-11-14T16:05:14.641Z,10.25
2022-11-14T16:08:15.926Z,12.68
2022-11-14T16:11:17.181Z,8.02
2022-11-14T16:14:18.503Z,5.97
2022-11-14T16:17:19.793Z,6.95
2022-11-14T16:20:22.776Z,5.97
2022-11-14T16:23:24.029Z,7.20
2022-11-14T16:26:28.545Z,8.65
2022-11-14T16:32:30.954Z,10.88
2022-11-14T16:35:32.214Z,6.63
2022-11-14T16:38:33.446Z,7.90
2022-11-14T16:41:34.685Z,5.85
2022-11-14T16:44:41.203Z,6.40
2022-11-14T16:47:44.068Z,5.82
2022-11-14T16:50:45.368Z,6.38
2022-11-14T16:53:46.683Z,6.90
2022-11-14T16:56:48.332Z,5.65
2022-11-14T16:59:51.346Z,5.60
2022-11-14T17:02:52.619Z,6.68
2022-11-14T17:05:54.147Z,6.18
2022-11-14T17:08:56.350Z,5.50
2022-11-14T17:11:58.359Z,5.90
2022-11-14T17:14:59.745Z,6.38
2022-11-14T17:18:01.054Z,6.95
2022-11-14T17:21:09.879Z,8.18
2022-11-14T17:24:11.154Z,4.72
2022-11-14T17:27:15.233Z,6.22
2022-11-14T17:30:17.162Z,5.90
2022-11-14T17:33:18.453Z,6.32
2022-11-14T17:36:20.148Z,5.90
2022-11-14T17:39:21.452Z,6.07
2022-11-14T17:42:22.735Z,5.75
2022-11-14T17:45:24.181Z,5.90
2022-11-14T17:48:25.533Z,5.65
2022-11-14T17:51:26.926Z,4.90
2022-11-14T17:54:28.221Z,7.00
2022-11-14T17:57:29.550Z,5.78
2022-11-14T18:00:30.795Z,7.05
2022-11-14T18:03:32.120Z,6.75
2022-11-14T18:06:33.382Z,6.43
2022-11-14T18:09:34.663Z,4.05
2022-11-14T18:12:36.001Z,6.07
2022-11-14T18:15:38.444Z,6.70
2022-11-14T18:18:39.711Z,8.43
2022-11-14T18:21:43.115Z,7.03
2022-11-14T18:24:47.220Z,6.57
2022-11-14T18:27:48.490Z,5.97
2022-11-14T18:30:56.472Z,6.70
2022-11-14T18:33:57.844Z,7.70
2022-11-14T18:36:59.116Z,5.18
2022-11-14T18:40:00.351Z,8.88
2022-11-14T18:43:01.645Z,6.63
2022-11-14T18:46:10.174Z,11.75
2022-11-14T18:49:11.826Z,5.32
2022-11-14T18:52:17.510Z,6.68
2022-11-14T18:55:19.083Z,5.88
2022-11-14T18:58:20.333Z,5.50
2022-11-14T19:01:26.405Z,7.78
2022-11-14T19:04:27.984Z,9.85
2022-11-14T19:07:30.101Z,8.68
2022-11-14T19:10:31.442Z,8.48
2022-11-14T19:13:33.178Z,7.10
2022-11-14T19:16:35.267Z,8.18
2022-11-14T19:19:36.488Z,7.20
2022-11-14T19:22:37.746Z,7.53
2022-11-14T19:25:38.984Z,6.30
2022-11-14T19:28:40.250Z,6.88
2022-11-14T19:31:41.634Z,7.93
2022-11-14T19:34:42.955Z,7.20
2022-11-14T19:37:44.215Z,7.20
2022-11-14T19:40:50.737Z,5.95
2022-11-14T19:43:52.754Z,6.30
2022-11-14T19:46:54.059Z,8.20
2022-11-14T19:49:55.344Z,5.57
2022-11-14T19:52:56.611Z,6.88
2022-11-14T19:55:58.997Z,8.05
2022-11-14T19:59:00.409Z,7.53
2022-11-14T20:02:03.028Z,6.72
2022-11-14T20:05:04.511Z,5.53
2022-11-14T20:08:05.967Z,7.20
2022-11-14T20:11:07.665Z,6.50
2022-11-14T20:14:10.012Z,9.10
2022-11-14T20:17:11.270Z,7.07
2022-11-14T20:20:12.596Z,6.53
2022-11-14T20:23:14.024Z,4.80
2022-11-14T20:26:16.289Z,6.10
2022-11-14T20:29:17.583Z,6.22
2022-11-14T20:32:18.873Z,5.82
2022-11-14T20:35:20.219Z,7.53
2022-11-14T20:38:21.601Z,6.88
2022-11-14T20:41:22.969Z,5.57
2022-11-14T20:44:24.419Z,6.43
2022-11-14T20:47:27.425Z,6.13
2022-11-14T20:50:29.426Z,6.47
2022-11-14T20:53:31.714Z,6.53
2022-11-14T20:56:33.145Z,6.65
2022-11-14T20:59:34.457Z,7.47
2022-11-14T21:02:35.765Z,6.85
2022-11-14T21:05:40.192Z,6.57
2022-11-14T21:08:42.067Z,9.15
2022-11-14T21:11:43.326Z,7.97
2022-11-14T21:14:44.616Z,7.35
2022-11-14T21:17:45.870Z,6.65
2022-11-14T21:20:47.130Z,7.88
2022-11-14T21:23:48.381Z,6.80
2022-11-14T21:26:49.636Z,6.57
2022-11-14T21:29:50.855Z,8.77
2022-11-14T21:32:53.120Z,5.90
2022-11-14T21:35:54.657Z,10.05
2022-11-14T21:38:56.381Z,7.82
2022-11-14T21:41:57.616Z,9.35
2022-11-14T21:44:58.833Z,5.65
2022-11-14T21:48:00.094Z,9.32
2022-11-14T21:51:04.532Z,4.22
2022-11-14T21:57:10.235Z,5.03
2022-11-14T22:00:12.156Z,5.10
2022-11-14T22:03:35.422Z,6.28
2022-11-14T22:06:36.813Z,5.45
2022-11-14T22:09:43.953Z,5.35
2022-11-14T22:12:46.495Z,6.35
2022-11-14T22:15:47.738Z,8.07
2022-11-14T22:18:51.319Z,5.88
2022-11-14T22:21:52.956Z,6.85
2022-11-14T22:24:54.209Z,6.43
2022-11-14T22:27:55.442Z,5.18
2022-11-14T22:31:16.197Z,5.57
2022-11-14T22:34:17.462Z,7.22
2022-11-14T22:37:18.700Z,6.63
2022-11-14T22:40:20.053Z,5.30
2022-11-14T22:43:22.306Z,7.10
2022-11-14T22:46:23.672Z,6.03
2022-11-14T22:49:24.923Z,5.45
2022-11-14T22:52:26.162Z,6.03
2022-11-14T22:55:27.387Z,5.55
2022-11-14T22:58:32.753Z,5.78
2022-11-14T23:01:34.086Z,6.03
2022-11-14T23:04:35.305Z,5.18
2022-11-14T23:07:36.610Z,6.22
2022-11-14T23:10:37.880Z,5.78
2022-11-14T23:13:40.413Z,5.85
2022-11-14T23:16:41.659Z,6.35
2022-11-14T23:19:42.933Z,5.57
2022-11-14T23:22:44.200Z,4.95
2022-11-14T23:25:45.454Z,6.65
2022-11-14T23:28:46.703Z,6.93
2022-11-14T23:31:47.961Z,5.32
2022-11-14T23:34:49.218Z,5.93
2022-11-14T23:37:50.453Z,5.22
2022-11-14T23:40:55.301Z,4.68
2022-11-14T23:43:56.526Z,5.65
2022-11-14T23:46:57.764Z,5.97
2022-11-14T23:50:00.039Z,8.07
2022-11-14T23:53:01.267Z,5.18
2022-11-14T23:56:02.546Z,6.32
2022-11-14T23:59:03.828Z,4.88
